Terminal Aerodrome Forecast
Issued by NWS Bismarck, ND

Home | Current Version | Previous Version | Text Only | Print | Product List | Glossary Off
Versions: 1 2 3 4 5 6 7 8 9 10 11 12 13 14 15 16 17

000
FTUS43 KBIS 201128
TAFISN
TAF
KISN 201128Z 2012/2112 VRB03KT P6SM FEW250
     FM201600 19006KT P6SM FEW250
     FM202300 13005KT P6SM SCT250
     FM210200 26007KT P6SM SCT150 SCT250
     FM210400 29012G17KT P6SM SCT110 BKN180 WS020/29045KT
     FM210600 28023G33KT P6SM BKN130 WS020/29035KT
     FM210800 27014G21KT P6SM BKN100 WS020/28035KT=

USA.gov is the U.S. government's official web portal to all federal, state and local government web resources and services.